Terminal Aerodrome Forecast
Issued by NWS

Home | Current Version | Previous Version | Graphics & Text | Print | Product List | Glossary On
Versions: 1 2 3 4 5 6 7 8 9 10 11 12 13 14 15 16 17 18 19 20 21 22 23 24 25 26 27 28
000
FTUS43 KUNR 232320
TAFGCC
TAF
KGCC 232320Z 2400/2424 34014KT P6SM BKN023
      TEMPO 2400/2401 VRB15G25KT P6SM -TSRA BKN020CB
     FM240100 32013KT P6SM -SHRA BKN020
     FM240400 27012KT P6SM -RA OVC010
     FM241500 27018G28KT 5SM -SHRA OVC015=

USA.gov is the U.S. government's official web portal to all federal, state and local government web resources and services.